Rye Beach, NH (03871)

12:11 AM EST on January 22, 2017 (GMT -0500)
Hampton Airfield 7B3 | | Change Station
Active Advisory: Storm Watch

Elev 93 ft 42.96 °N, 70.83 °W | Updated 13 minutes ago

Partly Cloudy
Partly Cloudy
41.6 °F
Feels Like 42 °F
N
0.0
Wind Variable Wind from West
Gusts 0.0 mph

Today
High -- | Low -- °F
--% Chance of Precip.
Yesterday
High -- | Low -- °F
Precip. -- in
Pressure 29.74 in
Visibility 10.0 miles
Clouds Few 3000 ft
Windchill 42 °F
Dew Point 39 °F
Humidity 90%
Rainfall 0.00 in
Snow Depth Not available.
7:06 AM 4:42 PM
Waning Crescent, 29% visible
METAR KPSM 220458Z 24004KT 10SM FEW030 02/01 A2973 RMK AO2A SLP071 T00150006 400790009
Pressure 29.74 in
Visibility 10.0 miles
Clouds Few 3000 ft
Windchill 42 °F
Dew Point 39 °F
Humidity 90%
Rainfall 0.00 in
Snow Depth Not available.
7:06 AM 4:42 PM
Waning Crescent, 29% visible
METAR KPSM 220458Z 24004KT 10SM FEW030 02/01 A2973 RMK AO2A SLP071 T00150006 400790009

Get Your Daily Forecast Email!

Thanks for signing up!

Be on the lookout for a verification email in your inbox.

You'll start receiving the daily forecast at 8 AM.

×

10-Day Weather Forecast

Almanac

Astronomy

Jan. 22, 2017 Rise Set
Actual Time
Civil Twilight
Nautical Twilight
Astronomical Twilight
Moon
Length of Visible Light
Length of Day
Tomorrow will be .
, % of the Moon is Illuminated

Today's Extremes

State Highs State Lows

Community

WunderPhotos

Upload Photos

1,962,540 photos uploaded!

WunderBlog® & News

Nearby

Air Quality

  Air Quality AQ Index Pollutant
Not available.

Snow Depth

Station Depth Elevation

Earthquake Activity

City Distance Mag. Time & Date
Minimum magnitude displayed is 2.5.

Coastal Water Temperatures

Place Temperature

Stations

Nearby Weather Stations

Station Location Temp. Windchill Dew Point Humidity Wind Precip. Elev Updated Type
                   

Watches & Warnings

Storm Watch
Issued: 3:25 PM EST Jan. 21, 2017 – National Weather Service

... Storm watch remains in effect from Monday afternoon through
late Monday night...

* winds... east 30 to 40 kt with gusts up to 50 kt.

* Seas... 14 to 19 feet.

Precautionary/preparedness actions...

A storm watch is issued when the risk of storm force winds of
48 to 63 knots has significantly increased... but the specific
timing and/or location is still uncertain. It is intended to
provide additional lead time for mariners who may wish to
consider altering their plans.